sensor_id;sensor_type;location;lat;lon;timestamp;temperature;humidity
30134;DHT22;16946;49.984;10.672;2023-06-14T00:00:26;13.00;1.00
30134;DHT22;16946;49.984;10.672;2023-06-14T00:00:57;13.10;1.00
30134;DHT22;16946;49.984;10.672;2023-06-14T00:01:28;13.10;1.00
30134;DHT22;16946;49.984;10.672;2023-06-14T00:01:59;13.10;1.00
30134;DHT22;16946;49.984;10.672;2023-06-14T00:02:29;13.20;1.00
30134;DHT22;16946;49.984;10.672;2023-06-14T00:03:00;13.20;1.00
30134;DHT22;16946;49.984;10.672;2023-06-14T00:03:31;13.30;1.00
30134;DHT22;16946;49.984;10.672;2023-06-14T00:04:02;13.30;1.00
30134;DHT22;16946;49.984;10.672;2023-06-14T00:04:32;13.30;1.00
30134;DHT22;16946;49.984;10.672;2023-06-14T00:05:04;13.40;1.00
30134;DHT22;16946;49.984;10.672;2023-06-14T00:05:36;13.40;1.00
30134;DHT22;16946;49.984;10.672;2023-06-14T00:06:13;13.40;1.00
30134;DHT22;16946;49.984;10.672;2023-06-14T00:06:44;13.40;1.00
30134;DHT22;16946;49.984;10.672;2023-06-14T00:07:22;13.50;1.00
30134;DHT22;16946;49.984;10.672;2023-06-14T00:08:03;13.50;1.00
30134;DHT22;16946;49.984;10.672;2023-06-14T00:08:37;13.50;1.00
30134;DHT22;16946;49.984;10.672;2023-06-14T00:09:08;13.60;1.00
30134;DHT22;16946;49.984;10.672;2023-06-14T00:09:39;13.60;1.00
30134;DHT22;16946;49.984;10.672;2023-06-14T00:10:11;13.60;1.00
30134;DHT22;16946;49.984;10.672;2023-06-14T00:10:41;13.60;1.00
30134;DHT22;16946;49.984;10.672;2023-06-14T00:11:12;13.70;1.00
30134;DHT22;16946;49.984;10.672;2023-06-14T00:11:43;13.60;1.00
30134;DHT22;16946;49.984;10.672;2023-06-14T00:12:14;13.60;1.00
30134;DHT22;16946;49.984;10.672;2023-06-14T00:12:44;13.60;1.00
30134;DHT22;16946;49.984;10.672;2023-06-14T00:13:15;13.50;1.00
30134;DHT22;16946;49.984;10.672;2023-06-14T00:13:46;13.40;1.00
30134;DHT22;16946;49.984;10.672;2023-06-14T00:14:16;13.40;1.00
30134;DHT22;16946;49.984;10.672;2023-06-14T00:14:47;13.40;1.00
30134;DHT22;16946;49.984;10.672;2023-06-14T00:15:17;13.40;1.00
30134;DHT22;16946;49.984;10.672;2023-06-14T00:15:48;13.30;1.00
30134;DHT22;16946;49.984;10.672;2023-06-14T00:16:18;13.30;1.00
30134;DHT22;16946;49.984;10.672;2023-06-14T00:16:49;13.30;1.00
30134;DHT22;16946;49.984;10.672;2023-06-14T00:17:20;13.30;1.00
30134;DHT22;16946;49.984;10.672;2023-06-14T00:17:51;13.30;1.00
30134;DHT22;16946;49.984;10.672;2023-06-14T00:18:22;13.30;1.00
30134;DHT22;16946;49.984;10.672;2023-06-14T00:18:54;13.30;1.00
30134;DHT22;16946;49.984;10.672;2023-06-14T00:19:26;13.30;1.00
30134;DHT22;16946;49.984;10.672;2023-06-14T00:19:57;13.20;1.00
30134;DHT22;16946;49.984;10.672;2023-06-14T00:20:29;13.20;1.00
30134;DHT22;16946;49.984;10.672;2023-06-14T00:21:01;13.20;1.00
30134;DHT22;16946;49.984;10.672;2023-06-14T00:21:32;13.20;1.00
30134;DHT22;16946;49.984;10.672;2023-06-14T00:22:03;13.20;1.00
30134;DHT22;16946;49.984;10.672;2023-06-14T00:22:34;13.10;1.00
30134;DHT22;16946;49.984;10.672;2023-06-14T00:23:06;13.00;1.00
30134;DHT22;16946;49.984;10.672;2023-06-14T00:23:37;12.90;1.80
30134;DHT22;16946;49.984;10.672;2023-06-14T00:24:08;12.90;5.20
30134;DHT22;16946;49.984;10.672;2023-06-14T00:24:38;12.80;8.90
30134;DHT22;16946;49.984;10.672;2023-06-14T00:25:09;12.80;8.50
30134;DHT22;16946;49.984;10.672;2023-06-14T00:25:39;12.80;8.80
30134;DHT22;16946;49.984;10.672;2023-06-14T00:26:10;12.80;11.30
30134;DHT22;16946;49.984;10.672;2023-06-14T00:26:40;12.80;12.80
30134;DHT22;16946;49.984;10.672;2023-06-14T00:27:11;12.70;15.20
30134;DHT22;16946;49.984;10.672;2023-06-14T00:27:41;12.70;16.20
30134;DHT22;16946;49.984;10.672;2023-06-14T00:28:12;12.70;15.50
30134;DHT22;16946;49.984;10.672;2023-06-14T00:28:43;12.80;13.30
30134;DHT22;16946;49.984;10.672;2023-06-14T00:29:13;12.80;12.60
30134;DHT22;16946;49.984;10.672;2023-06-14T00:29:44;12.80;11.20
30134;DHT22;16946;49.984;10.672;2023-06-14T00:30:14;12.80;9.50
30134;DHT22;16946;49.984;10.672;2023-06-14T00:30:45;12.90;9.20
30134;DHT22;16946;49.984;10.672;2023-06-14T00:31:16;12.90;9.30
30134;DHT22;16946;49.984;10.672;2023-06-14T00:31:47;12.90;10.10
30134;DHT22;16946;49.984;10.672;2023-06-14T00:32:18;12.90;8.80
30134;DHT22;16946;49.984;10.672;2023-06-14T00:32:49;12.90;8.70
30134;DHT22;16946;49.984;10.672;2023-06-14T00:33:20;12.90;8.30
30134;DHT22;16946;49.984;10.672;2023-06-14T00:33:50;12.90;6.70
30134;DHT22;16946;49.984;10.672;2023-06-14T00:34:21;12.90;5.20
30134;DHT22;16946;49.984;10.672;2023-06-14T00:34:51;13.00;4.00
30134;DHT22;16946;49.984;10.672;2023-06-14T00:35:22;13.00;1.80
30134;DHT22;16946;49.984;10.672;2023-06-14T00:35:53;13.00;1.00
30134;DHT22;16946;49.984;10.672;2023-06-14T00:36:26;13.10;1.00
30134;DHT22;16946;49.984;10.672;2023-06-14T00:36:57;13.10;1.00
30134;DHT22;16946;49.984;10.672;2023-06-14T00:37:27;13.20;1.00
30134;DHT22;16946;49.984;10.672;2023-06-14T00:37:58;13.20;1.00
30134;DHT22;16946;49.984;10.672;2023-06-14T00:38:29;13.30;1.00
30134;DHT22;16946;49.984;10.672;2023-06-14T00:39:00;13.30;1.00
30134;DHT22;16946;49.984;10.672;2023-06-14T00:39:30;13.30;1.00
30134;DHT22;16946;49.984;10.672;2023-06-14T00:40:01;13.40;1.00
30134;DHT22;16946;49.984;10.672;2023-06-14T00:40:32;13.40;1.00
30134;DHT22;16946;49.984;10.672;2023-06-14T00:41:02;13.50;1.00
30134;DHT22;16946;49.984;10.672;2023-06-14T00:41:33;13.50;1.00
30134;DHT22;16946;49.984;10.672;2023-06-14T00:42:04;13.50;1.00
30134;DHT22;16946;49.984;10.672;2023-06-14T00:42:35;13.50;1.00
30134;DHT22;16946;49.984;10.672;2023-06-14T00:43:06;13.50;1.00
30134;DHT22;16946;49.984;10.672;2023-06-14T00:43:36;13.50;1.00
30134;DHT22;16946;49.984;10.672;2023-06-14T00:44:07;13.60;1.00
30134;DHT22;16946;49.984;10.672;2023-06-14T00:44:38;13.50;1.00
30134;DHT22;16946;49.984;10.672;2023-06-14T00:45:09;13.50;1.00
30134;DHT22;16946;49.984;10.672;2023-06-14T00:45:39;13.50;1.00
30134;DHT22;16946;49.984;10.672;2023-06-14T00:46:10;13.50;1.00
30134;DHT22;16946;49.984;10.672;2023-06-14T00:46:40;13.50;1.00
30134;DHT22;16946;49.984;10.672;2023-06-14T00:47:11;13.40;1.00
30134;DHT22;16946;49.984;10.672;2023-06-14T00:47:43;13.40;1.00
30134;DHT22;16946;49.984;10.672;2023-06-14T00:48:14;13.30;1.00
30134;DHT22;16946;49.984;10.672;2023-06-14T00:48:45;13.30;1.00
30134;DHT22;16946;49.984;10.672;2023-06-14T00:49:17;13.20;1.00
30134;DHT22;16946;49.984;10.672;2023-06-14T00:49:49;13.20;1.00
30134;DHT22;16946;49.984;10.672;2023-06-14T00:50:21;13.20;1.00
30134;DHT22;16946;49.984;10.672;2023-06-14T00:50:54;13.20;1.00
30134;DHT22;16946;49.984;10.672;2023-06-14T00:51:24;13.10;1.00
30134;DHT22;16946;49.984;10.672;2023-06-14T00:51:55;13.10;1.00
30134;DHT22;16946;49.984;10.672;2023-06-14T00:52:26;13.10;1.30
30134;DHT22;16946;49.984;10.672;2023-06-14T00:52:56;13.10;2.00
30134;DHT22;16946;49.984;10.672;2023-06-14T00:53:29;13.00;2.50
30134;DHT22;16946;49.984;10.672;2023-06-14T00:53:59;13.00;2.80
30134;DHT22;16946;49.984;10.672;2023-06-14T00:54:30;13.00;4.60
30134;DHT22;16946;49.984;10.672;2023-06-14T00:55:01;12.90;6.20
30134;DHT22;16946;49.984;10.672;2023-06-14T00:55:32;12.90;7.90
30134;DHT22;16946;49.984;10.672;2023-06-14T00:56:03;12.90;9.00
30134;DHT22;16946;49.984;10.672;2023-06-14T00:56:36;12.90;9.00
30134;DHT22;16946;49.984;10.672;2023-06-14T00:57:07;12.90;8.00
30134;DHT22;16946;49.984;10.672;2023-06-14T00:57:38;12.90;9.50
30134;DHT22;16946;49.984;10.672;2023-06-14T00:58:11;12.90;10.40
30134;DHT22;16946;49.984;10.672;2023-06-14T00:58:41;12.90;10.40
30134;DHT22;16946;49.984;10.672;2023-06-14T00:59:12;12.90;11.40
30134;DHT22;16946;49.984;10.672;2023-06-14T00:59:45;12.90;10.00
30134;DHT22;16946;49.984;10.672;2023-06-14T01:00:16;12.90;10.90
30134;DHT22;16946;49.984;10.672;2023-06-14T01:00:47;12.90;11.30
30134;DHT22;16946;49.984;10.672;2023-06-14T01:01:17;12.90;10.00
30134;DHT22;16946;49.984;10.672;2023-06-14T01:01:48;12.90;9.00
30134;DHT22;16946;49.984;10.672;2023-06-14T01:02:19;12.90;8.40
30134;DHT22;16946;49.984;10.672;2023-06-14T01:02:49;12.90;8.30
30134;DHT22;16946;49.984;10.672;2023-06-14T01:03:20;12.90;7.40
30134;DHT22;16946;49.984;10.672;2023-06-14T01:03:52;12.90;6.90
30134;DHT22;16946;49.984;10.672;2023-06-14T01:04:23;13.00;5.40
30134;DHT22;16946;49.984;10.672;2023-06-14T01:04:54;12.90;5.90
30134;DHT22;16946;49.984;10.672;2023-06-14T01:05:25;13.00;5.60
30134;DHT22;16946;49.984;10.672;2023-06-14T01:06:10;13.00;6.60
30134;DHT22;16946;49.984;10.672;2023-06-14T01:08:21;12.90;6.00
30134;DHT22;16946;49.984;10.672;2023-06-14T01:09:18;13.00;5.20
30134;DHT22;16946;49.984;10.672;2023-06-14T01:10:32;13.00;3.10
30134;DHT22;16946;49.984;10.672;2023-06-14T01:11:12;13.00;1.10
30134;DHT22;16946;49.984;10.672;2023-06-14T01:14:00;13.20;1.00
30134;DHT22;16946;49.984;10.672;2023-06-14T01:14:33;13.30;1.00
30134;DHT22;16946;49.984;10.672;2023-06-14T01:15:05;13.30;1.00
30134;DHT22;16946;49.984;10.672;2023-06-14T01:15:37;13.40;1.00
30134;DHT22;16946;49.984;10.672;2023-06-14T01:16:08;13.40;1.00
30134;DHT22;16946;49.984;10.672;2023-06-14T01:16:40;13.40;1.00
30134;DHT22;16946;49.984;10.672;2023-06-14T01:17:12;13.40;1.00
30134;DHT22;16946;49.984;10.672;2023-06-14T01:17:49;13.40;1.00
30134;DHT22;16946;49.984;10.672;2023-06-14T01:18:22;13.40;1.00
30134;DHT22;16946;49.984;10.672;2023-06-14T01:18:54;13.40;1.00
30134;DHT22;16946;49.984;10.672;2023-06-14T01:19:27;13.40;1.00
30134;DHT22;16946;49.984;10.672;2023-06-14T01:20:02;13.30;1.00
30134;DHT22;16946;49.984;10.672;2023-06-14T01:20:33;13.40;1.00
30134;DHT22;16946;49.984;10.672;2023-06-14T01:21:20;13.30;1.00
30134;DHT22;16946;49.984;10.672;2023-06-14T01:21:51;13.20;1.00
30134;DHT22;16946;49.984;10.672;2023-06-14T01:22:25;13.30;1.00
30134;DHT22;16946;49.984;10.672;2023-06-14T01:22:56;13.20;1.00
30134;DHT22;16946;49.984;10.672;2023-06-14T01:23:27;13.20;1.00
30134;DHT22;16946;49.984;10.672;2023-06-14T01:24:02;13.20;1.00
30134;DHT22;16946;49.984;10.672;2023-06-14T01:24:33;13.30;1.00
30134;DHT22;16946;49.984;10.672;2023-06-14T01:25:05;13.30;1.00
30134;DHT22;16946;49.984;10.672;2023-06-14T01:25:36;13.30;1.00
30134;DHT22;16946;49.984;10.672;2023-06-14T01:26:08;13.30;1.00
30134;DHT22;16946;49.984;10.672;2023-06-14T01:26:38;13.30;1.00
30134;DHT22;16946;49.984;10.672;2023-06-14T01:27:16;13.20;1.00
30134;DHT22;16946;49.984;10.672;2023-06-14T01:27:52;13.30;1.00
30134;DHT22;16946;49.984;10.672;2023-06-14T01:28:23;13.30;1.00
30134;DHT22;16946;49.984;10.672;2023-06-14T01:28:55;13.20;1.00
30134;DHT22;16946;49.984;10.672;2023-06-14T01:29:29;13.20;1.00
30134;DHT22;16946;49.984;10.672;2023-06-14T01:30:03;13.10;1.00
30134;DHT22;16946;49.984;10.672;2023-06-14T01:30:36;13.10;1.00
30134;DHT22;16946;49.984;10.672;2023-06-14T01:31:08;13.00;3.40
30134;DHT22;16946;49.984;10.672;2023-06-14T01:31:38;13.00;2.70
30134;DHT22;16946;49.984;10.672;2023-06-14T01:32:11;13.00;2.90
30134;DHT22;16946;49.984;10.672;2023-06-14T01:32:42;13.00;1.30
30134;DHT22;16946;49.984;10.672;2023-06-14T01:33:19;13.00;1.00
30134;DHT22;16946;49.984;10.672;2023-06-14T01:33:51;13.00;1.60
30134;DHT22;16946;49.984;10.672;2023-06-14T01:34:22;13.00;3.30
30134;DHT22;16946;49.984;10.672;2023-06-14T01:34:53;12.90;6.90
30134;DHT22;16946;49.984;10.672;2023-06-14T01:35:23;12.90;9.00
30134;DHT22;16946;49.984;10.672;2023-06-14T01:35:55;12.80;13.60
30134;DHT22;16946;49.984;10.672;2023-06-14T01:36:27;12.80;16.90
30134;DHT22;16946;49.984;10.672;2023-06-14T01:37:00;12.70;19.90
30134;DHT22;16946;49.984;10.672;2023-06-14T01:37:31;12.70;22.30
30134;DHT22;16946;49.984;10.672;2023-06-14T01:38:02;12.60;23.40
30134;DHT22;16946;49.984;10.672;2023-06-14T01:38:34;12.60;25.40
30134;DHT22;16946;49.984;10.672;2023-06-14T01:39:05;12.60;27.00
30134;DHT22;16946;49.984;10.672;2023-06-14T01:39:36;12.50;31.60
30134;DHT22;16946;49.984;10.672;2023-06-14T01:40:08;12.50;34.70
30134;DHT22;16946;49.984;10.672;2023-06-14T01:40:42;12.50;37.50
30134;DHT22;16946;49.984;10.672;2023-06-14T01:41:15;12.40;43.60
30134;DHT22;16946;49.984;10.672;2023-06-14T01:41:47;12.40;48.50
30134;DHT22;16946;49.984;10.672;2023-06-14T01:42:20;12.30;49.10
30134;DHT22;16946;49.984;10.672;2023-06-14T01:42:51;12.40;51.80
30134;DHT22;16946;49.984;10.672;2023-06-14T01:43:22;12.40;57.10
30134;DHT22;16946;49.984;10.672;2023-06-14T01:43:54;12.40;57.40
30134;DHT22;16946;49.984;10.672;2023-06-14T01:44:26;12.40;59.10
30134;DHT22;16946;49.984;10.672;2023-06-14T01:44:57;12.40;56.30
30134;DHT22;16946;49.984;10.672;2023-06-14T01:45:29;12.40;54.60
30134;DHT22;16946;49.984;10.672;2023-06-14T01:46:00;12.50;53.00
30134;DHT22;16946;49.984;10.672;2023-06-14T01:46:31;12.50;45.70
30134;DHT22;16946;49.984;10.672;2023-06-14T01:47:01;12.50;40.40
30134;DHT22;16946;49.984;10.672;2023-06-14T01:47:32;12.40;44.10
30134;DHT22;16946;49.984;10.672;2023-06-14T01:48:04;12.40;47.70
30134;DHT22;16946;49.984;10.672;2023-06-14T01:48:35;12.40;43.70
30134;DHT22;16946;49.984;10.672;2023-06-14T01:49:06;12.40;42.40
30134;DHT22;16946;49.984;10.672;2023-06-14T01:49:38;12.40;43.30
30134;DHT22;16946;49.984;10.672;2023-06-14T01:50:09;12.40;45.60
30134;DHT22;16946;49.984;10.672;2023-06-14T01:50:39;12.40;48.10
30134;DHT22;16946;49.984;10.672;2023-06-14T01:51:10;12.30;49.40
30134;DHT22;16946;49.984;10.672;2023-06-14T01:51:41;12.30;48.90
30134;DHT22;16946;49.984;10.672;2023-06-14T01:52:11;12.30;50.10
30134;DHT22;16946;49.984;10.672;2023-06-14T01:52:42;12.30;51.70
30134;DHT22;16946;49.984;10.672;2023-06-14T01:53:13;12.30;53.00
30134;DHT22;16946;49.984;10.672;2023-06-14T01:53:43;12.30;55.20
30134;DHT22;16946;49.984;10.672;2023-06-14T01:54:14;12.20;57.80
30134;DHT22;16946;49.984;10.672;2023-06-14T01:54:44;12.30;58.30
30134;DHT22;16946;49.984;10.672;2023-06-14T01:55:15;12.30;59.20
30134;DHT22;16946;49.984;10.672;2023-06-14T01:55:48;12.40;57.40
30134;DHT22;16946;49.984;10.672;2023-06-14T01:56:18;12.40;54.60
30134;DHT22;16946;49.984;10.672;2023-06-14T01:56:49;12.40;49.20
30134;DHT22;16946;49.984;10.672;2023-06-14T01:57:19;12.40;47.60
30134;DHT22;16946;49.984;10.672;2023-06-14T01:57:52;12.40;46.70
30134;DHT22;16946;49.984;10.672;2023-06-14T01:58:23;12.40;50.10
30134;DHT22;16946;49.984;10.672;2023-06-14T01:58:54;12.40;50.90
30134;DHT22;16946;49.984;10.672;2023-06-14T01:59:26;12.30;48.40
30134;DHT22;16946;49.984;10.672;2023-06-14T01:59:56;12.30;52.80
30134;DHT22;16946;49.984;10.672;2023-06-14T02:00:27;12.30;54.10
30134;DHT22;16946;49.984;10.672;2023-06-14T02:00:57;12.40;52.90
30134;DHT22;16946;49.984;10.672;2023-06-14T02:01:28;12.40;50.20
30134;DHT22;16946;49.984;10.672;2023-06-14T02:01:58;12.40;52.50
30134;DHT22;16946;49.984;10.672;2023-06-14T02:02:29;12.40;52.80
30134;DHT22;16946;49.984;10.672;2023-06-14T02:03:00;12.40;44.90
30134;DHT22;16946;49.984;10.672;2023-06-14T02:03:30;12.50;42.30
30134;DHT22;16946;49.984;10.672;2023-06-14T02:04:01;12.50;41.90
30134;DHT22;16946;49.984;10.672;2023-06-14T02:04:32;12.50;35.30
30134;DHT22;16946;49.984;10.672;2023-06-14T02:05:02;12.50;33.60
30134;DHT22;16946;49.984;10.672;2023-06-14T02:05:34;12.50;36.40
30134;DHT22;16946;49.984;10.672;2023-06-14T02:06:05;12.50;34.30
30134;DHT22;16946;49.984;10.672;2023-06-14T02:06:35;12.50;35.90
30134;DHT22;16946;49.984;10.672;2023-06-14T02:07:06;12.50;35.90
30134;DHT22;16946;49.984;10.672;2023-06-14T02:07:36;12.50;39.60
30134;DHT22;16946;49.984;10.672;2023-06-14T02:08:07;12.50;35.70
30134;DHT22;16946;49.984;10.672;2023-06-14T02:08:38;12.60;33.10
30134;DHT22;16946;49.984;10.672;2023-06-14T02:09:08;12.60;33.10
30134;DHT22;16946;49.984;10.672;2023-06-14T02:09:40;12.60;30.90
30134;DHT22;16946;49.984;10.672;2023-06-14T02:10:10;12.60;29.10
30134;DHT22;16946;49.984;10.672;2023-06-14T02:10:41;12.60;29.10
30134;DHT22;16946;49.984;10.672;2023-06-14T02:11:11;12.60;28.30
30134;DHT22;16946;49.984;10.672;2023-06-14T02:11:42;12.60;28.90
30134;DHT22;16946;49.984;10.672;2023-06-14T02:12:12;12.50;30.30
30134;DHT22;16946;49.984;10.672;2023-06-14T02:12:43;12.50;33.10
30134;DHT22;16946;49.984;10.672;2023-06-14T02:13:14;12.40;37.80
30134;DHT22;16946;49.984;10.672;2023-06-14T02:13:45;12.40;42.60
30134;DHT22;16946;49.984;10.672;2023-06-14T02:14:15;12.30;49.30
30134;DHT22;16946;49.984;10.672;2023-06-14T02:14:47;12.30;52.40
30134;DHT22;16946;49.984;10.672;2023-06-14T02:15:18;12.20;63.60
30134;DHT22;16946;49.984;10.672;2023-06-14T02:15:49;12.20;60.70
30134;DHT22;16946;49.984;10.672;2023-06-14T02:16:24;12.20;61.90
30134;DHT22;16946;49.984;10.672;2023-06-14T02:16:55;12.10;63.50
30134;DHT22;16946;49.984;10.672;2023-06-14T02:17:25;12.10;62.60
30134;DHT22;16946;49.984;10.672;2023-06-14T02:17:56;12.10;67.70
30134;DHT22;16946;49.984;10.672;2023-06-14T02:18:27;12.10;64.70
30134;DHT22;16946;49.984;10.672;2023-06-14T02:18:57;12.10;66.30
30134;DHT22;16946;49.984;10.672;2023-06-14T02:19:28;12.10;66.90
30134;DHT22;16946;49.984;10.672;2023-06-14T02:19:59;12.10;65.80
30134;DHT22;16946;49.984;10.672;2023-06-14T02:20:30;12.20;65.30
30134;DHT22;16946;49.984;10.672;2023-06-14T02:21:01;12.20;67.80
30134;DHT22;16946;49.984;10.672;2023-06-14T02:21:31;12.20;69.00
30134;DHT22;16946;49.984;10.672;2023-06-14T02:22:02;12.30;64.30
30134;DHT22;16946;49.984;10.672;2023-06-14T02:22:32;12.30;52.20
30134;DHT22;16946;49.984;10.672;2023-06-14T02:23:03;12.30;48.40
30134;DHT22;16946;49.984;10.672;2023-06-14T02:23:33;12.30;49.70
30134;DHT22;16946;49.984;10.672;2023-06-14T02:24:04;12.40;45.20
30134;DHT22;16946;49.984;10.672;2023-06-14T02:24:35;12.40;41.40
30134;DHT22;16946;49.984;10.672;2023-06-14T02:25:06;12.40;44.30
30134;DHT22;16946;49.984;10.672;2023-06-14T02:25:37;12.40;36.20
30134;DHT22;16946;49.984;10.672;2023-06-14T02:26:09;12.40;37.70
30134;DHT22;16946;49.984;10.672;2023-06-14T02:26:40;12.40;38.80
30134;DHT22;16946;49.984;10.672;2023-06-14T02:27:13;12.30;39.50
30134;DHT22;16946;49.984;10.672;2023-06-14T02:27:44;12.30;44.30
30134;DHT22;16946;49.984;10.672;2023-06-14T02:28:15;12.30;43.90
30134;DHT22;16946;49.984;10.672;2023-06-14T02:28:45;12.30;48.80
30134;DHT22;16946;49.984;10.672;2023-06-14T02:29:16;12.30;47.20
30134;DHT22;16946;49.984;10.672;2023-06-14T02:29:46;12.20;50.20
30134;DHT22;16946;49.984;10.672;2023-06-14T02:30:17;12.20;53.50
30134;DHT22;16946;49.984;10.672;2023-06-14T02:30:47;12.20;57.10
30134;DHT22;16946;49.984;10.672;2023-06-14T02:31:18;12.10;59.50
30134;DHT22;16946;49.984;10.672;2023-06-14T02:31:48;12.10;62.40
30134;DHT22;16946;49.984;10.672;2023-06-14T02:32:19;12.00;64.50
30134;DHT22;16946;49.984;10.672;2023-06-14T02:32:50;12.00;66.80
30134;DHT22;16946;49.984;10.672;2023-06-14T02:33:21;12.00;64.90
30134;DHT22;16946;49.984;10.672;2023-06-14T02:33:52;12.00;66.80
30134;DHT22;16946;49.984;10.672;2023-06-14T02:34:22;12.00;68.80
30134;DHT22;16946;49.984;10.672;2023-06-14T02:34:53;12.00;69.10
30134;DHT22;16946;49.984;10.672;2023-06-14T02:35:25;12.00;71.50
30134;DHT22;16946;49.984;10.672;2023-06-14T02:35:56;12.00;72.50
30134;DHT22;16946;49.984;10.672;2023-06-14T02:36:27;12.00;73.50
30134;DHT22;16946;49.984;10.672;2023-06-14T02:37:00;11.90;76.70
30134;DHT22;16946;49.984;10.672;2023-06-14T02:37:33;11.90;77.90
30134;DHT22;16946;49.984;10.672;2023-06-14T02:38:04;11.90;81.70
30134;DHT22;16946;49.984;10.672;2023-06-14T02:38:34;11.90;80.60
30134;DHT22;16946;49.984;10.672;2023-06-14T02:39:05;11.90;80.40
30134;DHT22;16946;49.984;10.672;2023-06-14T02:39:35;11.90;76.80
30134;DHT22;16946;49.984;10.672;2023-06-14T02:40:07;12.00;76.50
30134;DHT22;16946;49.984;10.672;2023-06-14T02:40:39;12.00;74.40
30134;DHT22;16946;49.984;10.672;2023-06-14T02:41:12;12.00;70.10
30134;DHT22;16946;49.984;10.672;2023-06-14T02:41:43;12.00;71.60
30134;DHT22;16946;49.984;10.672;2023-06-14T02:42:13;12.00;69.10
30134;DHT22;16946;49.984;10.672;2023-06-14T02:42:44;12.00;69.30
30134;DHT22;16946;49.984;10.672;2023-06-14T02:43:14;12.00;68.00
30134;DHT22;16946;49.984;10.672;2023-06-14T02:43:45;12.00;68.70
30134;DHT22;16946;49.984;10.672;2023-06-14T02:44:18;12.00;68.20
30134;DHT22;16946;49.984;10.672;2023-06-14T02:44:49;12.00;69.70
30134;DHT22;16946;49.984;10.672;2023-06-14T02:45:21;11.90;75.80
30134;DHT22;16946;49.984;10.672;2023-06-14T02:45:51;11.90;82.00
30134;DHT22;16946;49.984;10.672;2023-06-14T02:46:22;11.80;86.20
30134;DHT22;16946;49.984;10.672;2023-06-14T02:46:55;11.80;88.00
30134;DHT22;16946;49.984;10.672;2023-06-14T02:47:26;11.80;90.50
30134;DHT22;16946;49.984;10.672;2023-06-14T02:47:57;11.80;91.70
30134;DHT22;16946;49.984;10.672;2023-06-14T02:48:27;11.80;91.80
30134;DHT22;16946;49.984;10.672;2023-06-14T02:48:59;11.80;92.60
30134;DHT22;16946;49.984;10.672;2023-06-14T02:49:29;11.80;91.80
30134;DHT22;16946;49.984;10.672;2023-06-14T02:50:00;11.70;93.20
30134;DHT22;16946;49.984;10.672;2023-06-14T02:50:30;11.70;97.20
30134;DHT22;16946;49.984;10.672;2023-06-14T02:51:01;11.80;97.90
30134;DHT22;16946;49.984;10.672;2023-06-14T02:51:31;11.70;95.20
30134;DHT22;16946;49.984;10.672;2023-06-14T02:52:02;11.80;94.30
30134;DHT22;16946;49.984;10.672;2023-06-14T02:52:33;11.80;90.00
30134;DHT22;16946;49.984;10.672;2023-06-14T02:53:04;11.80;89.20
30134;DHT22;16946;49.984;10.672;2023-06-14T02:53:35;11.80;91.60
30134;DHT22;16946;49.984;10.672;2023-06-14T02:54:06;11.80;92.30
30134;DHT22;16946;49.984;10.672;2023-06-14T02:54:37;11.80;92.70
30134;DHT22;16946;49.984;10.672;2023-06-14T02:55:08;11.80;86.90
30134;DHT22;16946;49.984;10.672;2023-06-14T02:55:40;11.80;86.80
30134;DHT22;16946;49.984;10.672;2023-06-14T02:56:10;11.80;89.10
30134;DHT22;16946;49.984;10.672;2023-06-14T02:56:42;11.80;87.60
30134;DHT22;16946;49.984;10.672;2023-06-14T02:57:12;11.80;88.20
30134;DHT22;16946;49.984;10.672;2023-06-14T02:57:43;11.80;89.80
30134;DHT22;16946;49.984;10.672;2023-06-14T02:58:14;11.90;85.10
30134;DHT22;16946;49.984;10.672;2023-06-14T02:58:45;11.90;80.80
30134;DHT22;16946;49.984;10.672;2023-06-14T02:59:15;11.90;78.00
30134;DHT22;16946;49.984;10.672;2023-06-14T02:59:47;11.90;76.80
30134;DHT22;16946;49.984;10.672;2023-06-14T03:00:18;12.00;73.20
30134;DHT22;16946;49.984;10.672;2023-06-14T03:00:49;11.90;73.20
30134;DHT22;16946;49.984;10.672;2023-06-14T03:01:22;11.90;74.90
30134;DHT22;16946;49.984;10.672;2023-06-14T03:01:53;11.90;75.40
30134;DHT22;16946;49.984;10.672;2023-06-14T03:02:24;11.90;75.00
30134;DHT22;16946;49.984;10.672;2023-06-14T03:02:54;11.90;76.40
30134;DHT22;16946;49.984;10.672;2023-06-14T03:03:25;11.80;82.20
30134;DHT22;16946;49.984;10.672;2023-06-14T03:03:56;11.80;86.50
30134;DHT22;16946;49.984;10.672;2023-06-14T03:04:27;11.80;88.80
30134;DHT22;16946;49.984;10.672;2023-06-14T03:04:59;11.70;90.30
30134;DHT22;16946;49.984;10.672;2023-06-14T03:05:31;11.80;93.20
30134;DHT22;16946;49.984;10.672;2023-06-14T03:06:03;11.80;91.80
30134;DHT22;16946;49.984;10.672;2023-06-14T03:06:35;11.80;90.70
30134;DHT22;16946;49.984;10.672;2023-06-14T03:07:07;11.80;89.40
30134;DHT22;16946;49.984;10.672;2023-06-14T03:07:39;11.80;86.50
30134;DHT22;16946;49.984;10.672;2023-06-14T03:08:11;11.80;87.00
30134;DHT22;16946;49.984;10.672;2023-06-14T03:08:47;11.80;90.70
30134;DHT22;16946;49.984;10.672;2023-06-14T03:09:19;11.80;92.20
30134;DHT22;16946;49.984;10.672;2023-06-14T03:09:50;11.70;91.80
30134;DHT22;16946;49.984;10.672;2023-06-14T03:10:21;11.80;91.20
30134;DHT22;16946;49.984;10.672;2023-06-14T03:10:52;11.80;86.50
30134;DHT22;16946;49.984;10.672;2023-06-14T03:11:23;11.80;90.00
30134;DHT22;16946;49.984;10.672;2023-06-14T03:11:54;11.70;91.90
30134;DHT22;16946;49.984;10.672;2023-06-14T03:12:24;11.70;93.80
30134;DHT22;16946;49.984;10.672;2023-06-14T03:12:55;11.60;95.40
30134;DHT22;16946;49.984;10.672;2023-06-14T03:13:25;11.60;97.00
30134;DHT22;16946;49.984;10.672;2023-06-14T03:13:57;11.50;98.60
30134;DHT22;16946;49.984;10.672;2023-06-14T03:14:27;11.50;99.50
30134;DHT22;16946;49.984;10.672;2023-06-14T03:14:59;11.50;99.90
30134;DHT22;16946;49.984;10.672;2023-06-14T03:15:34;11.50;99.90
30134;DHT22;16946;49.984;10.672;2023-06-14T03:16:05;11.60;99.90
30134;DHT22;16946;49.984;10.672;2023-06-14T03:16:37;11.60;97.50
30134;DHT22;16946;49.984;10.672;2023-06-14T03:17:08;11.50;99.10
30134;DHT22;16946;49.984;10.672;2023-06-14T03:17:39;11.50;99.90
30134;DHT22;16946;49.984;10.672;2023-06-14T03:18:09;11.50;99.40
30134;DHT22;16946;49.984;10.672;2023-06-14T03:18:40;11.50;99.90
30134;DHT22;16946;49.984;10.672;2023-06-14T03:19:10;11.50;99.90
30134;DHT22;16946;49.984;10.672;2023-06-14T03:19:41;11.50;99.90
30134;DHT22;16946;49.984;10.672;2023-06-14T03:20:12;11.50;99.90
30134;DHT22;16946;49.984;10.672;2023-06-14T03:20:42;11.50;99.90
30134;DHT22;16946;49.984;10.672;2023-06-14T03:21:15;11.60;98.50
30134;DHT22;16946;49.984;10.672;2023-06-14T03:21:46;11.50;98.90